Pottersville, Indiana
Current Conditions -  °F | °C
As of 6:53 PM on Friday 24 Oct 2014 (Local Time) from KBMG Reporting Station
Clear Clear  
Wind Chill: 15°   Ceiling: Unl
Heat Index: 15°   Visibility: 10mi
Dew Point: 11°   Wind: 0mph
Humidity: 75%   Direction: NA
Pressure: 30.04"   Gusts: NA
Location:  39.3008°N, 86.8112°W
Report Text: KBMG 242253Z 00000KT 10SM CLR 15/11 A3004 RMK AO2 SLP172 T01500106
Loading
Personal Weather Stations






























Interactive Weather Map
Tropical Storm Tracking
New forecast layout! Learn more

10-Day Weather Forecast

Advertisements
Track Severe Weather on mobile